Time;durP1;ratioP1;P1;durP2;ratioP2;P2;SDS_P1;SDS_P2;PMS_P1;PMS_P2;Temp;Humidity;BMP_temperature;BMP_pressure;BME280_temperature;BME280_humidity;BME280_pressure;Samples;Min_cycle;Max_cycle;Signal;HPM_P1;HPM_P2
2022/10/06 00:02:10;;;;;;;5.15;1.00;;;9.20;99.90;;;;;;4994059;28;20057;-92
2022/10/06 00:04:36;;;;;;;9.65;1.10;;;9.20;99.90;;;;;;4994642;28;20081;-96
2022/10/06 00:07:02;;;;;;;14.30;1.40;;;9.20;99.90;;;;;;4994658;28;20030;-94
2022/10/06 00:09:27;;;;;;;12.48;1.90;;;9.20;99.90;;;;;;4995707;28;20511;-96
2022/10/06 00:11:53;;;;;;;15.13;1.45;;;9.20;99.90;;;;;;4998438;28;20027;-95
2022/10/06 00:14:19;;;;;;;7.45;1.30;;;9.20;99.90;;;;;;5007239;28;20081;-94
2022/10/06 00:16:44;;;;;;;8.02;1.75;;;9.20;99.90;;;;;;5004173;28;20029;-94
2022/10/06 00:19:10;;;;;;;10.65;1.30;;;9.20;99.90;;;;;;4996982;28;20026;-94
2022/10/06 00:21:36;;;;;;;7.43;1.00;;;9.10;99.90;;;;;;4995162;28;20031;-94
2022/10/06 00:24:01;;;;;;;12.18;2.53;;;9.20;99.90;;;;;;4994831;28;20029;-95
2022/10/06 00:26:30;;;;;;;9.68;1.15;;;9.20;99.90;;;;;;4995042;28;20503;-94
2022/10/06 00:28:55;;;;;;;11.63;1.60;;;9.20;99.90;;;;;;4996024;28;20101;-96
2022/10/06 00:31:21;;;;;;;10.35;2.13;;;9.20;99.90;;;;;;4995411;28;20388;-95
2022/10/06 00:33:48;;;;;;;5.97;0.90;;;9.20;99.90;;;;;;4994040;28;20035;-94
2022/10/06 00:36:14;;;;;;;7.43;1.13;;;9.10;99.90;;;;;;4995035;28;20065;-94
2022/10/06 00:38:40;;;;;;;8.55;1.85;;;9.10;99.90;;;;;;4994178;28;20033;-96
2022/10/06 00:41:06;;;;;;;5.57;1.13;;;9.10;99.90;;;;;;4995814;28;20034;-93
2022/10/06 00:43:49;;;;;;;6.30;0.98;;;9.10;99.90;;;;;;4995982;28;20109;-95
2022/10/06 00:46:24;;;;;;;8.68;1.05;;;9.10;99.90;;;;;;4994960;28;20029;-94
2022/10/06 00:49:13;;;;;;;14.77;1.85;;;9.10;99.90;;;;;;4994146;28;20096;-94
2022/10/06 00:51:44;;;;;;;8.07;1.10;;;9.10;99.90;;;;;;4999212;28;20050;-96
2022/10/06 00:54:11;;;;;;;6.50;1.17;;;9.00;99.90;;;;;;4995400;28;20357;-95
2022/10/06 00:56:39;;;;;;;13.27;1.65;;;9.00;99.90;;;;;;4997533;28;20037;-95
2022/10/06 00:59:17;;;;;;;5.45;0.85;;;9.00;99.90;;;;;;4994229;28;20050;-95
2022/10/06 01:02:12;;;;;;;9.85;1.02;;;8.90;99.90;;;;;;4993989;28;20057;-93
2022/10/06 01:04:43;;;;;;;5.30;1.15;;;9.00;99.90;;;;;;4993536;28;20038;-94
2022/10/06 01:07:10;;;;;;;4.47;0.70;;;9.00;99.90;;;;;;4995867;28;20069;-95
2022/10/06 01:09:36;;;;;;;11.07;1.55;;;9.00;99.90;;;;;;5006575;28;20029;-94
2022/10/06 01:12:05;;;;;;;10.98;1.00;;;9.00;99.90;;;;;;5003032;28;20087;-93
2022/10/06 01:14:32;;;;;;;7.65;1.60;;;8.90;99.90;;;;;;5003103;28;20058;-92
2022/10/06 01:17:19;;;;;;;8.40;1.30;;;8.90;99.90;;;;;;4996686;28;20416;-92
2022/10/06 01:20:08;;;;;;;6.93;1.00;;;8.90;99.90;;;;;;4997549;28;20062;-96
2022/10/06 01:22:34;;;;;;;6.18;0.90;;;8.90;99.90;;;;;;4996943;28;20472;-95
2022/10/06 01:25:01;;;;;;;11.55;1.38;;;8.90;99.90;;;;;;4998487;28;20031;-96
2022/10/06 01:27:29;;;;;;;7.45;1.20;;;8.90;99.90;;;;;;4997699;28;20497;-93
2022/10/06 01:29:56;;;;;;;13.23;1.50;;;8.90;99.90;;;;;;4998704;28;20523;-95
2022/10/06 01:32:23;;;;;;;8.50;1.05;;;8.90;99.90;;;;;;4997603;28;20019;-94
2022/10/06 01:34:49;;;;;;;13.07;1.55;;;8.90;99.90;;;;;;5013882;28;20062;-94
2022/10/06 01:37:15;;;;;;;4.55;0.93;;;8.90;99.90;;;;;;5015425;28;20026;-95
2022/10/06 01:39:42;;;;;;;11.25;1.08;;;8.90;99.90;;;;;;5009882;28;20479;-95
2022/10/06 01:42:09;;;;;;;9.23;1.38;;;8.90;99.90;;;;;;4998391;28;20045;-95
2022/10/06 01:44:35;;;;;;;10.73;0.90;;;8.90;99.90;;;;;;4998096;28;20510;-95
2022/10/06 01:47:04;;;;;;;4.60;1.10;;;8.90;99.90;;;;;;4998497;28;20035;-95
2022/10/06 01:49:30;;;;;;;9.27;1.23;;;8.90;99.90;;;;;;4997737;28;20030;-94
2022/10/06 01:51:56;;;;;;;6.25;1.00;;;8.90;99.90;;;;;;4998822;28;20026;-95
2022/10/06 01:54:22;;;;;;;8.23;1.13;;;8.90;99.90;;;;;;4998409;28;20030;-96
2022/10/06 01:56:47;;;;;;;10.95;1.23;;;8.90;99.90;;;;;;5000249;28;20041;-96
2022/10/06 01:59:13;;;;;;;10.07;2.38;;;8.90;99.90;;;;;;5005366;28;20098;-95
2022/10/06 02:01:39;;;;;;;8.38;1.30;;;8.90;99.90;;;;;;5016428;28;20050;-95
2022/10/06 02:04:05;;;;;;;7.97;1.00;;;8.90;99.90;;;;;;4999783;28;20053;-94
2022/10/06 02:06:30;;;;;;;6.28;1.25;;;8.90;99.90;;;;;;4997263;28;20035;-94
2022/10/06 02:08:56;;;;;;;6.93;1.20;;;8.90;99.90;;;;;;4997629;28;20034;-94
2022/10/06 02:11:22;;;;;;;7.50;1.00;;;8.90;99.90;;;;;;4998093;28;20037;-95
2022/10/06 02:13:47;;;;;;;16.13;2.10;;;8.90;99.90;;;;;;4998616;28;20184;-94
2022/10/06 02:16:13;;;;;;;13.13;1.90;;;8.90;99.90;;;;;;5001651;28;20045;-93
2022/10/06 02:18:39;;;;;;;7.97;1.15;;;8.80;99.90;;;;;;4998988;28;20118;-93
2022/10/06 02:21:06;;;;;;;6.72;1.20;;;8.80;99.90;;;;;;5011043;28;20038;-94
2022/10/06 02:23:32;;;;;;;8.38;1.27;;;8.80;99.90;;;;;;5008622;28;20038;-93
2022/10/06 02:26:07;;;;;;;11.02;1.25;;;8.80;99.90;;;;;;4997367;28;20104;-93
2022/10/06 02:28:34;;;;;;;19.65;1.77;;;8.80;99.90;;;;;;4996544;28;20023;-95
2022/10/06 02:31:07;;;;;;;11.40;1.60;;;8.80;99.90;;;;;;4987604;28;20031;-95
2022/10/06 02:33:35;;;;;;;8.90;1.52;;;8.80;99.90;;;;;;4976631;28;20031;-95
2022/10/06 02:36:01;;;;;;;10.75;1.60;;;8.80;99.90;;;;;;4976761;28;20027;-94
2022/10/06 02:38:27;;;;;;;8.68;1.38;;;8.80;99.90;;;;;;4977096;28;20033;-95
2022/10/06 02:40:53;;;;;;;11.25;1.35;;;8.70;99.90;;;;;;4977625;28;20043;-94
2022/10/06 02:43:20;;;;;;;12.10;1.15;;;8.80;99.90;;;;;;4977208;28;20481;-95
2022/10/06 02:45:57;;;;;;;17.85;1.65;;;8.70;99.90;;;;;;4976842;28;20062;-93
2022/10/06 02:48:23;;;;;;;11.73;1.50;;;8.70;99.90;;;;;;4976533;28;20106;-94
2022/10/06 02:51:01;;;;;;;13.13;1.40;;;8.70;99.90;;;;;;4976103;28;20138;-95
2022/10/06 02:53:27;;;;;;;7.82;1.20;;;8.70;99.90;;;;;;4976846;28;20078;-95
2022/10/06 02:56:18;;;;;;;10.40;1.20;;;8.70;99.90;;;;;;4976005;28;20061;-94
2022/10/06 02:58:46;;;;;;;15.50;1.90;;;8.70;99.90;;;;;;4976300;28;20110;-94
2022/10/06 03:01:18;;;;;;;7.50;1.00;;;8.60;99.90;;;;;;4975561;28;20039;-94
2022/10/06 03:03:47;;;;;;;18.20;2.08;;;8.60;99.90;;;;;;4976767;28;20062;-93
2022/10/06 03:06:23;;;;;;;5.88;1.05;;;8.50;99.90;;;;;;4976820;28;20027;-93
2022/10/06 03:08:53;;;;;;;12.52;1.42;;;8.50;99.90;;;;;;4979681;28;20023;-95
2022/10/06 03:11:21;;;;;;;7.70;1.20;;;8.50;99.90;;;;;;4984165;28;20055;-93
2022/10/06 03:13:51;;;;;;;9.57;1.33;;;8.50;99.90;;;;;;4975290;28;20030;-91
2022/10/06 03:16:18;;;;;;;;;;;8.50;99.90;;;;;;4975505;28;20503;-92
2022/10/06 03:18:45;;;;;;;7.78;1.30;;;8.50;99.90;;;;;;4975534;28;19922;-96
2022/10/06 03:21:15;;;;;;;15.50;1.55;;;8.50;99.90;;;;;;4976642;28;20067;-94
2022/10/06 03:23:45;;;;;;;16.87;1.90;;;8.50;99.90;;;;;;4976895;28;20026;-94
2022/10/06 03:26:12;;;;;;;14.60;2.40;;;8.60;99.90;;;;;;4975468;28;20023;-94
2022/10/06 03:28:39;;;;;;;14.43;1.83;;;8.60;99.90;;;;;;4975634;28;20027;-94
2022/10/06 03:31:05;;;;;;;11.93;1.60;;;8.60;99.90;;;;;;4975033;28;20027;-95
2022/10/06 03:33:32;;;;;;;10.00;1.38;;;8.60;99.90;;;;;;4976343;28;20030;-94
2022/10/06 03:36:18;;;;;;;11.65;1.65;;;8.60;99.90;;;;;;4975580;28;20031;-94
2022/10/06 03:38:44;;;;;;;11.70;1.67;;;8.60;99.90;;;;;;4976286;28;20051;-93
2022/10/06 03:41:10;;;;;;;13.75;1.55;;;8.60;99.90;;;;;;4976481;28;20484;-93
2022/10/06 03:43:36;;;;;;;11.30;1.92;;;8.60;99.90;;;;;;4977756;28;20031;-93
2022/10/06 03:46:04;;;;;;;9.25;1.27;;;8.60;99.90;;;;;;4989354;28;20030;-95
2022/10/06 03:48:34;;;;;;;11.90;1.40;;;8.60;99.90;;;;;;4982509;28;20383;-93
2022/10/06 03:51:12;;;;;;;9.35;1.30;;;8.60;99.90;;;;;;4975952;28;20046;-93
2022/10/06 03:53:38;;;;;;;10.98;1.83;;;8.70;99.90;;;;;;4976192;28;20126;-95
2022/10/06 03:56:11;;;;;;;16.48;1.88;;;8.70;99.90;;;;;;4975739;28;20030;-95
2022/10/06 03:58:42;;;;;;;10.90;2.53;;;8.70;99.90;;;;;;4975933;28;20027;-93
2022/10/06 04:01:21;;;;;;;7.32;1.60;;;8.70;99.90;;;;;;4982948;28;20042;-95
2022/10/06 04:03:46;;;;;;;9.55;1.40;;;8.70;99.90;;;;;;4995161;28;20488;-92
2022/10/06 04:06:17;;;;;;;17.13;1.80;;;8.70;99.90;;;;;;4993633;28;20034;-93
2022/10/06 04:08:43;;;;;;;11.40;1.90;;;8.70;99.90;;;;;;4975305;28;20054;-94
2022/10/06 04:11:10;;;;;;;11.55;1.50;;;8.70;99.90;;;;;;4975519;28;20082;-91
2022/10/06 04:13:37;;;;;;;12.32;1.60;;;8.70;99.90;;;;;;4975943;28;20038;-93
2022/10/06 04:16:16;;;;;;;15.25;2.47;;;8.70;99.90;;;;;;4993973;28;20487;-93
2022/10/06 04:18:43;;;;;;;14.70;2.90;;;8.60;99.90;;;;;;5009871;28;20030;-95
2022/10/06 04:21:10;;;;;;;14.63;1.95;;;8.60;99.90;;;;;;5009201;28;20038;-93
2022/10/06 04:23:36;;;;;;;15.27;1.63;;;8.60;99.90;;;;;;5011296;28;20030;-93
2022/10/06 04:26:09;;;;;;;13.65;2.40;;;8.60;99.90;;;;;;5015585;28;20010;-94
2022/10/06 04:28:39;;;;;;;11.73;1.88;;;8.60;99.90;;;;;;5015584;28;20025;-94
2022/10/06 04:31:11;;;;;;;18.48;1.70;;;8.70;99.90;;;;;;5014472;28;20159;-94
2022/10/06 04:33:37;;;;;;;7.97;1.40;;;8.70;99.90;;;;;;5013394;28;20042;-93
2022/10/06 04:36:05;;;;;;;10.85;1.40;;;8.70;99.90;;;;;;5013348;28;20058;-94
2022/10/06 04:38:32;;;;;;;9.95;1.75;;;8.70;99.90;;;;;;4998079;28;20491;-93
2022/10/06 04:41:05;;;;;;;12.02;1.40;;;8.80;99.90;;;;;;4992373;28;20042;-95
2022/10/06 04:43:32;;;;;;;17.63;2.03;;;8.80;99.90;;;;;;4991742;28;20019;-92
2022/10/06 04:45:59;;;;;;;17.30;2.03;;;8.80;99.90;;;;;;4992387;28;20034;-95
2022/10/06 04:48:25;;;;;;;21.60;1.92;;;8.80;99.90;;;;;;4991823;28;20063;-94
2022/10/06 04:50:59;;;;;;;22.55;1.88;;;8.90;99.90;;;;;;4991291;28;20054;-93
2022/10/06 04:53:26;;;;;;;9.60;1.35;;;8.90;99.90;;;;;;4992433;28;20033;-92
2022/10/06 04:55:59;;;;;;;10.77;1.70;;;8.90;99.90;;;;;;4992278;28;20480;-92
2022/10/06 04:58:26;;;;;;;11.18;1.88;;;8.90;99.90;;;;;;4992611;28;20030;-93
2022/10/06 05:00:51;;;;;;;11.75;2.80;;;8.90;99.90;;;;;;4992035;28;20077;-96
2022/10/06 05:03:17;;;;;;;13.60;2.20;;;8.90;99.90;;;;;;4992644;28;20515;-93
2022/10/06 05:05:43;;;;;;;13.70;2.13;;;8.90;99.90;;;;;;4997197;28;20037;-93
2022/10/06 05:08:09;;;;;;;12.30;2.58;;;8.90;99.90;;;;;;4992885;28;20474;-96
2022/10/06 05:10:35;;;;;;;15.07;2.55;;;8.90;99.90;;;;;;4993032;28;20018;-94
2022/10/06 05:13:02;;;;;;;15.02;2.20;;;8.90;99.90;;;;;;4992875;28;20044;-93
2022/10/06 05:15:28;;;;;;;14.23;1.75;;;8.90;99.90;;;;;;4992875;28;20026;-93
2022/10/06 05:17:54;;;;;;;15.80;1.77;;;8.90;99.90;;;;;;4992705;28;20030;-93
2022/10/06 05:20:21;;;;;;;16.85;2.00;;;8.90;99.90;;;;;;4992695;28;20026;-93
2022/10/06 05:22:48;;;;;;;15.85;1.77;;;8.90;99.90;;;;;;4992564;28;20318;-92
2022/10/06 05:25:13;;;;;;;16.15;2.08;;;8.90;99.90;;;;;;4993571;28;20140;-93
2022/10/06 05:27:39;;;;;;;15.73;2.10;;;8.90;99.90;;;;;;4994199;28;20386;-91
2022/10/06 05:30:05;;;;;;;13.00;1.70;;;8.90;99.90;;;;;;4998454;28;20065;-92
2022/10/06 05:32:31;;;;;;;8.73;1.65;;;8.80;99.90;;;;;;5003709;28;20038;-93
2022/10/06 05:34:57;;;;;;;10.20;1.90;;;8.90;99.90;;;;;;4996619;28;20034;-94
2022/10/06 05:37:24;;;;;;;14.93;1.75;;;8.90;99.90;;;;;;4999521;28;20020;-94
2022/10/06 05:39:50;;;;;;;16.17;2.33;;;8.90;99.90;;;;;;4996878;28;20121;-94
2022/10/06 05:42:15;;;;;;;17.35;1.70;;;8.80;99.90;;;;;;4991663;28;20062;-95
2022/10/06 05:44:41;;;;;;;14.52;2.03;;;8.90;99.90;;;;;;4991366;28;20026;-95
2022/10/06 05:47:07;;;;;;;22.10;3.15;;;8.80;99.90;;;;;;4991937;28;20488;-93
2022/10/06 05:49:33;;;;;;;11.15;1.70;;;8.80;99.90;;;;;;4991977;28;20477;-95
2022/10/06 05:51:59;;;;;;;15.65;2.75;;;8.80;99.90;;;;;;4989387;28;20057;-94
2022/10/06 05:54:25;;;;;;;13.52;1.58;;;8.80;99.90;;;;;;4992064;28;20050;-93
2022/10/06 05:56:51;;;;;;;16.02;1.77;;;8.80;99.90;;;;;;4995497;28;20345;-93
2022/10/06 05:59:16;;;;;;;12.65;1.73;;;8.80;99.90;;;;;;4994765;28;20488;-94
2022/10/06 06:01:42;;;;;;;18.92;1.95;;;8.90;99.90;;;;;;4995322;28;20142;-95
2022/10/06 06:04:12;;;;;;;13.68;2.13;;;8.90;99.90;;;;;;4995105;28;20481;-93
2022/10/06 06:06:41;;;;;;;15.90;1.77;;;8.90;99.90;;;;;;4994995;28;20054;-94
2022/10/06 06:09:08;;;;;;;20.42;2.22;;;9.00;99.90;;;;;;4996708;28;20121;-94
2022/10/06 06:11:36;;;;;;;10.15;1.38;;;9.00;99.90;;;;;;4995901;28;20034;-94
2022/10/06 06:14:11;;;;;;;13.50;1.95;;;9.00;99.90;;;;;;4987289;28;20030;-96
2022/10/06 06:16:38;;;;;;;16.55;1.95;;;9.00;99.90;;;;;;4987319;28;20571;-93
2022/10/06 06:19:05;;;;;;;22.02;2.47;;;9.00;99.90;;;;;;4968287;28;20038;-93
2022/10/06 06:21:32;;;;;;;11.98;1.75;;;9.00;99.90;;;;;;4990056;28;20031;-94
2022/10/06 06:23:58;;;;;;;17.75;2.33;;;9.00;99.90;;;;;;4995519;28;20030;-93
2022/10/06 06:26:26;;;;;;;18.00;1.92;;;9.00;99.90;;;;;;5003065;28;20037;-94
2022/10/06 06:28:53;;;;;;;11.57;1.75;;;9.00;99.90;;;;;;4993874;28;20026;-94
2022/10/06 06:31:22;;;;;;;19.48;1.92;;;8.90;99.90;;;;;;4987626;28;20023;-95
2022/10/06 06:33:53;;;;;;;19.52;2.72;;;8.90;99.90;;;;;;4981200;28;20022;-93
2022/10/06 06:36:23;;;;;;;16.27;2.25;;;8.90;99.90;;;;;;4984499;28;20026;-93
2022/10/06 06:38:52;;;;;;;20.60;2.10;;;8.90;99.90;;;;;;4992946;28;20037;-93
2022/10/06 06:41:30;;;;;;;16.95;1.90;;;8.90;99.90;;;;;;4996677;28;20184;-93
2022/10/06 06:43:58;;;;;;;15.10;1.83;;;8.90;99.90;;;;;;4996047;28;20026;-96
2022/10/06 06:46:29;;;;;;;21.55;2.17;;;8.90;99.90;;;;;;4993698;28;20534;-93
2022/10/06 06:48:54;;;;;;;21.00;2.40;;;8.90;99.90;;;;;;4976170;28;20030;-92
2022/10/06 06:51:24;;;;;;;16.25;1.77;;;8.90;99.90;;;;;;4976231;28;20055;-95
2022/10/06 06:53:54;;;;;;;18.57;2.00;;;8.90;99.90;;;;;;4976251;28;20034;-94
2022/10/06 06:56:20;;;;;;;15.35;1.88;;;8.90;99.90;;;;;;4975939;28;20364;-95
2022/10/06 06:58:46;;;;;;;17.77;2.85;;;8.90;99.90;;;;;;4976122;28;20026;-93
2022/10/06 07:01:15;;;;;;;19.05;2.20;;;9.00;99.90;;;;;;4979507;28;20035;-95
2022/10/06 07:03:44;;;;;;;15.88;2.15;;;9.00;99.90;;;;;;4994397;28;20037;-95
2022/10/06 07:06:11;;;;;;;15.77;2.58;;;9.00;99.90;;;;;;4992916;28;20527;-95
2022/10/06 07:08:45;;;;;;;15.20;2.08;;;9.00;99.90;;;;;;4994836;28;20498;-96
2022/10/06 07:11:17;;;;;;;14.38;2.25;;;9.00;99.90;;;;;;4985781;28;20019;-95
2022/10/06 07:13:44;;;;;;;17.67;1.65;;;9.10;99.90;;;;;;4996671;28;20026;-95
2022/10/06 07:27:22;;;;;;;18.10;1.90;;;9.30;99.90;;;;;;4989132;28;20122;-93
2022/10/06 07:29:53;;;;;;;15.63;2.00;;;9.30;99.90;;;;;;4987678;28;20102;-95
2022/10/06 07:32:20;;;;;;;14.90;2.13;;;9.40;99.90;;;;;;4988672;28;20023;-95
2022/10/06 07:34:51;;;;;;;20.48;4.18;;;9.40;99.90;;;;;;4998486;28;21405;-94
2022/10/06 07:37:18;;;;;;;29.50;2.65;;;9.50;99.90;;;;;;4994776;28;20041;-94
2022/10/06 07:39:45;;;;;;;16.23;2.78;;;9.50;99.90;;;;;;4988042;28;20026;-95
2022/10/06 07:42:13;;;;;;;18.30;3.00;;;9.60;99.90;;;;;;4990745;28;20182;-95
2022/10/06 07:44:40;;;;;;;21.25;1.90;;;9.60;99.90;;;;;;4986843;28;20023;-95
2022/10/06 07:47:06;;;;;;;24.73;3.10;;;9.70;99.90;;;;;;4994560;28;20026;-94
2022/10/06 07:49:33;;;;;;;15.20;2.47;;;9.80;99.90;;;;;;4991121;28;20033;-95
2022/10/06 07:51:58;;;;;;;12.95;1.48;;;9.80;99.90;;;;;;4990680;28;20133;-95
2022/10/06 07:54:33;;;;;;;19.80;2.47;;;9.90;99.90;;;;;;4991405;28;20026;-95
2022/10/06 07:57:05;;;;;;;16.50;2.55;;;10.00;99.90;;;;;;4992700;28;20053;-95
2022/10/06 07:59:33;;;;;;;14.80;2.30;;;10.10;99.90;;;;;;4987706;28;20027;-95
2022/10/06 08:01:59;;;;;;;15.23;2.00;;;10.20;99.90;;;;;;4988103;28;20042;-95
2022/10/06 08:04:32;;;;;;;17.08;2.53;;;10.30;99.90;;;;;;4991142;28;20047;-95
2022/10/06 08:06:58;;;;;;;17.90;2.72;;;10.30;99.90;;;;;;4999429;28;20564;-95
2022/10/06 08:09:27;;;;;;;20.35;2.40;;;10.40;99.90;;;;;;4996132;28;20476;-93
2022/10/06 08:11:52;;;;;;;14.63;2.10;;;10.40;99.90;;;;;;4995541;28;20438;-93
2022/10/06 08:14:18;;;;;;;13.48;1.98;;;10.40;99.90;;;;;;4995197;28;20022;-94
2022/10/06 08:16:44;;;;;;;21.83;2.63;;;10.40;99.90;;;;;;4994366;28;20476;-95
2022/10/06 08:19:10;;;;;;;22.60;2.35;;;10.40;99.90;;;;;;4996499;28;20011;-95
2022/10/06 08:21:38;;;;;;;13.73;2.42;;;10.40;99.90;;;;;;4996032;28;20042;-95
2022/10/06 08:24:04;;;;;;;18.05;2.10;;;10.50;99.90;;;;;;4991233;28;20039;-95
2022/10/06 08:26:32;;;;;;;24.98;4.05;;;10.50;99.90;;;;;;4995086;28;20093;-96
2022/10/06 08:29:01;;;;;;;14.35;2.85;;;10.60;99.90;;;;;;4999492;28;20030;-95
2022/10/06 08:31:31;;;;;;;21.35;2.85;;;10.60;99.90;;;;;;4994590;28;20495;-94
2022/10/06 08:34:06;;;;;;;12.20;2.10;;;10.60;99.90;;;;;;4996978;28;20038;-93
2022/10/06 08:36:32;;;;;;;17.58;2.65;;;10.60;99.90;;;;;;4992059;28;20085;-94
2022/10/06 08:39:02;;;;;;;19.85;2.00;;;10.60;99.90;;;;;;4993896;28;20030;-94
2022/10/06 08:41:50;;;;;;;18.52;2.20;;;10.60;99.90;;;;;;4997658;28;20038;-94
2022/10/06 08:44:33;;;;;;;23.85;2.13;;;10.70;99.90;;;;;;5000191;28;20041;-95
2022/10/06 08:47:24;;;;;;;21.63;2.30;;;10.70;99.90;;;;;;4996895;28;20037;-93
2022/10/06 08:49:53;;;;;;;17.65;3.13;;;10.70;99.90;;;;;;4976906;28;20496;-95
2022/10/06 08:52:50;;;;;;;18.67;3.53;;;10.70;99.90;;;;;;4993490;28;20037;-94
2022/10/06 08:55:52;;;;;;;20.52;2.72;;;10.80;99.90;;;;;;4994678;28;20033;-94
2022/10/06 08:58:29;;;;;;;23.00;2.88;;;10.90;99.90;;;;;;4991630;28;20034;-96
2022/10/06 09:01:08;;;;;;;19.58;2.30;;;10.90;99.90;;;;;;4998876;28;20061;-94
2022/10/06 09:03:36;;;;;;;15.18;2.45;;;11.00;99.90;;;;;;4992682;28;20050;-94
2022/10/06 09:06:22;;;;;;;23.92;2.42;;;11.10;99.90;;;;;;4998450;28;20062;-95
2022/10/06 09:08:58;;;;;;;28.50;2.65;;;11.10;99.90;;;;;;4995869;28;20099;-95
2022/10/06 09:11:39;;;;;;;22.67;3.47;;;11.20;99.90;;;;;;5001061;28;20026;-95
2022/10/06 09:14:40;;;;;;;20.13;2.85;;;11.30;99.90;;;;;;4995306;28;20049;-96
2022/10/06 09:17:17;;;;;;;33.15;3.20;;;11.40;99.90;;;;;;4999012;28;20240;-93
2022/10/06 09:19:57;;;;;;;17.73;3.17;;;11.40;99.90;;;;;;4981714;28;20026;-95
2022/10/06 09:22:23;;;;;;;13.00;2.25;;;11.50;99.90;;;;;;4980268;28;20142;-94
2022/10/06 09:25:00;;;;;;;25.40;3.13;;;11.50;99.90;;;;;;4993629;28;20034;-95
2022/10/06 09:27:35;;;;;;;17.48;2.95;;;11.60;99.90;;;;;;4977671;28;20027;-96
2022/10/06 09:30:03;;;;;;;20.73;2.65;;;11.70;99.90;;;;;;4978626;28;20038;-95
2022/10/06 09:32:30;;;;;;;19.52;2.28;;;11.70;99.90;;;;;;4999150;28;20033;-95
2022/10/06 09:35:01;;;;;;;18.70;2.00;;;11.80;99.90;;;;;;5001791;28;20031;-96
2022/10/06 09:37:27;;;;;;;20.08;2.22;;;11.90;99.90;;;;;;5001890;28;20027;-96
2022/10/06 09:39:54;;;;;;;24.30;2.88;;;12.10;99.90;;;;;;4993241;28;20093;-95
2022/10/06 09:42:28;;;;;;;14.68;2.17;;;12.20;99.90;;;;;;4979294;28;20035;-93
2022/10/06 09:45:16;;;;;;;18.15;3.40;;;12.30;99.90;;;;;;4985266;28;20022;-94
2022/10/06 09:47:43;;;;;;;17.83;3.70;;;12.40;99.90;;;;;;4996041;28;20034;-94
2022/10/06 09:50:19;;;;;;;18.85;2.85;;;12.60;99.90;;;;;;4996749;28;20048;-94
2022/10/06 09:52:57;;;;;;;22.45;4.55;;;12.60;99.90;;;;;;4994980;28;20515;-95
2022/10/06 09:55:28;;;;;;;15.63;2.25;;;12.70;99.90;;;;;;4994437;28;20031;-94
2022/10/06 09:57:56;;;;;;;14.15;1.70;;;12.70;99.90;;;;;;4996084;28;20495;-94
2022/10/06 10:00:37;;;;;;;17.45;2.92;;;12.80;99.90;;;;;;4995339;28;20451;-93
2022/10/06 10:03:13;;;;;;;17.83;2.28;;;12.90;99.90;;;;;;4996681;28;20038;-93
2022/10/06 10:05:49;;;;;;;18.77;2.03;;;13.00;99.90;;;;;;4991494;28;20479;-95
2022/10/06 10:08:22;;;;;;;15.95;1.90;;;13.20;99.90;;;;;;4970902;28;20030;-94
2022/10/06 10:12:23;;;;;;;19.67;2.17;;;13.20;99.90;;;;;;4987099;28;20026;-93
2022/10/06 10:13:58;;;;;;;17.35;2.65;;;13.30;99.90;;;;;;4989528;28;20023;-94
2022/10/06 10:16:33;;;;;;;13.13;2.70;;;13.30;99.90;;;;;;4985894;28;20086;-95
2022/10/06 10:19:04;;;;;;;12.13;2.03;;;13.30;99.90;;;;;;4987262;28;20023;-94
2022/10/06 10:21:35;;;;;;;14.25;2.33;;;13.30;99.90;;;;;;4996390;28;20034;-94
2022/10/06 10:24:14;;;;;;;12.63;1.88;;;13.40;99.90;;;;;;4995885;28;20037;-95
2022/10/06 10:26:58;;;;;;;9.82;1.60;;;13.40;99.90;;;;;;4996848;28;20476;-94
2022/10/06 10:29:35;;;;;;;11.15;2.05;;;13.50;99.90;;;;;;4996372;28;20039;-93
2022/10/06 10:32:23;;;;;;;14.73;2.72;;;13.50;99.90;;;;;;4996042;28;20498;-92
2022/10/06 10:34:58;;;;;;;15.70;1.98;;;13.70;99.90;;;;;;4994770;28;20046;-95
2022/10/06 10:37:27;;;;;;;14.85;2.17;;;13.70;99.90;;;;;;4996192;28;20480;-93
2022/10/06 10:40:00;;;;;;;12.05;2.03;;;13.80;99.90;;;;;;4995658;28;20104;-93
2022/10/06 10:42:44;;;;;;;16.90;2.05;;;13.90;99.90;;;;;;4984351;28;20035;-95
2022/10/06 10:45:33;;;;;;;12.85;2.17;;;14.00;99.90;;;;;;4976359;28;20046;-94
2022/10/06 10:48:20;;;;;;;17.20;2.47;;;14.00;99.90;;;;;;4976522;28;20054;-96
2022/10/06 10:50:50;;;;;;;10.57;1.95;;;14.10;99.90;;;;;;4981280;28;20046;-94
2022/10/06 10:53:33;;;;;;;11.10;1.98;;;14.20;99.90;;;;;;4976828;28;20031;-94
2022/10/06 10:56:02;;;;;;;15.65;2.13;;;14.40;99.90;;;;;;4979008;28;20031;-94
2022/10/06 10:58:40;;;;;;;17.52;3.08;;;14.50;99.90;;;;;;4976578;28;20031;-94
2022/10/06 11:01:25;;;;;;;15.70;2.42;;;14.60;99.90;;;;;;4976418;28;20034;-93
2022/10/06 11:03:57;;;;;;;13.65;2.50;;;14.60;99.90;;;;;;4978230;28;20035;-94
2022/10/06 11:06:39;;;;;;;11.38;1.80;;;14.70;99.90;;;;;;4977434;28;20396;-93
2022/10/06 11:09:19;;;;;;;9.43;2.13;;;14.80;99.90;;;;;;4980094;28;20042;-95
2022/10/06 11:12:06;;;;;;;14.47;2.33;;;14.80;99.90;;;;;;4981380;28;20117;-92
2022/10/06 11:14:41;;;;;;;16.45;2.15;;;14.70;99.90;;;;;;5004635;28;20034;-94
2022/10/06 11:17:28;;;;;;;14.27;2.65;;;14.80;99.90;;;;;;4998779;28;20006;-93
2022/10/06 11:20:00;;;;;;;11.73;2.20;;;14.90;99.90;;;;;;5010925;28;20038;-94
2022/10/06 11:22:43;;;;;;;15.55;2.50;;;15.00;99.90;;;;;;5006208;28;20026;-95
2022/10/06 11:25:35;;;;;;;11.27;1.70;;;15.10;99.90;;;;;;5002737;28;20022;-95
2022/10/06 11:28:07;;;;;;;17.85;2.75;;;15.10;99.90;;;;;;5004370;28;20081;-96
2022/10/06 11:30:38;;;;;;;15.85;1.90;;;15.00;99.90;;;;;;5005539;28;20064;-95
2022/10/06 11:33:18;;;;;;;;;;;15.00;99.90;;;;;;5001586;28;20015;-95
2022/10/06 11:35:45;;;;;;;15.05;1.98;;;15.10;99.90;;;;;;4998162;28;19906;-96
2022/10/06 11:38:20;;;;;;;8.38;2.10;;;15.10;99.90;;;;;;4999781;28;20034;-95
2022/10/06 11:40:54;;;;;;;13.98;2.17;;;15.30;99.90;;;;;;5009759;28;20026;-96
2022/10/06 11:43:32;;;;;;;9.88;1.63;;;15.40;99.90;;;;;;5010163;28;20031;-94
2022/10/06 11:46:12;;;;;;;9.80;1.90;;;15.80;99.90;;;;;;5010878;28;20061;-94
2022/10/06 11:48:39;;;;;;;7.20;1.30;;;15.90;99.90;;;;;;5016175;28;20025;-93
2022/10/06 11:51:23;;;;;;;7.40;1.20;;;16.10;99.90;;;;;;5016173;28;20077;-94
2022/10/06 11:53:51;;;;;;;8.15;1.80;;;16.30;99.90;;;;;;5006117;28;20061;-95
2022/10/06 11:56:19;;;;;;;6.32;1.50;;;16.40;99.90;;;;;;5009543;28;20121;-94
2022/10/06 11:58:54;;;;;;;20.35;2.35;;;16.50;99.90;;;;;;5009860;28;20018;-96
2022/10/06 12:01:35;;;;;;;11.18;1.67;;;16.70;99.90;;;;;;5013380;28;20030;-96
2022/10/06 12:04:06;;;;;;;;;;;16.90;99.90;;;;;;5012462;28;20028;-92
2022/10/06 12:06:41;;;;;;;10.50;1.42;;;17.10;99.90;;;;;;5013254;28;19897;-96
2022/10/06 12:09:27;;;;;;;11.43;1.80;;;17.40;99.90;;;;;;5012373;28;20033;-94
2022/10/06 12:11:59;;;;;;;8.48;1.60;;;17.70;99.90;;;;;;5018052;28;20034;-93
2022/10/06 12:14:43;;;;;;;6.10;2.00;;;17.80;99.90;;;;;;5005465;28;20034;-93
2022/10/06 12:17:42;;;;;;;6.90;1.67;;;17.90;99.90;;;;;;4997094;28;20042;-95
2022/10/06 12:20:17;;;;;;;14.40;2.70;;;18.10;99.90;;;;;;4997656;28;20050;-91
2022/10/06 12:22:53;;;;;;;9.75;1.55;;;18.30;99.90;;;;;;4997321;28;20026;-96
2022/10/06 12:25:59;;;;;;;9.30;2.45;;;18.40;99.90;;;;;;4997011;28;20019;-94
2022/10/06 12:28:37;;;;;;;13.38;1.55;;;18.50;99.90;;;;;;5006034;28;20027;-94
2022/10/06 12:31:12;;;;;;;14.57;1.80;;;18.50;99.90;;;;;;5011409;28;20105;-91
2022/10/06 12:33:41;;;;;;;8.57;1.80;;;18.50;99.90;;;;;;5003839;28;20018;-93
2022/10/06 12:36:28;;;;;;;6.30;1.60;;;18.60;99.90;;;;;;4999035;28;20026;-94
2022/10/06 12:39:01;;;;;;;7.47;1.60;;;18.60;98.30;;;;;;5009415;28;20065;-96
2022/10/06 12:42:05;;;;;;;10.35;2.38;;;18.40;98.30;;;;;;5009607;28;20041;-94
2022/10/06 12:44:39;;;;;;;9.07;1.48;;;18.30;98.80;;;;;;5014436;28;20018;-93
2022/10/06 12:47:19;;;;;;;10.32;2.15;;;18.10;98.80;;;;;;5013782;28;20038;-91
2022/10/06 12:49:52;;;;;;;8.68;1.60;;;17.80;99.30;;;;;;5014793;28;20038;-93
2022/10/06 12:52:42;;;;;;;10.35;1.40;;;17.60;99.90;;;;;;5012303;28;20316;-94
2022/10/06 12:55:35;;;;;;;11.73;1.95;;;17.50;99.90;;;;;;5014155;28;20030;-94
2022/10/06 12:58:00;;;;;;;13.13;1.90;;;17.40;99.90;;;;;;5015669;28;20010;-94
2022/10/06 13:00:46;;;;;;;9.52;1.50;;;17.40;99.90;;;;;;5015155;28;20069;-92
2022/10/06 13:03:18;;;;;;;13.32;1.73;;;17.30;99.90;;;;;;5015292;28;20026;-92
2022/10/06 13:05:53;;;;;;;15.65;3.42;;;17.20;99.90;;;;;;5019075;28;20035;-95
2022/10/06 13:08:24;;;;;;;16.73;1.65;;;17.10;99.90;;;;;;5019508;28;20014;-96
2022/10/06 13:10:50;;;;;;;7.35;1.48;;;17.00;99.90;;;;;;5002223;28;20050;-93
2022/10/06 13:13:23;;;;;;;6.50;1.63;;;17.00;99.90;;;;;;4999446;28;20050;-93
2022/10/06 13:15:54;;;;;;;6.65;1.58;;;17.00;99.90;;;;;;4986598;28;20034;-95
2022/10/06 13:18:22;;;;;;;8.80;2.00;;;17.00;99.90;;;;;;5002167;28;20440;-94
2022/10/06 13:20:50;;;;;;;9.57;2.00;;;16.90;99.90;;;;;;5014762;28;20103;-95